createdAt,value
2023-02-23T00:02:08.495Z,51.34
2023-02-23T00:04:43.345Z,51.26
2023-02-23T00:07:11.296Z,51.50
2023-02-23T00:09:40.334Z,51.48
2023-02-23T00:12:08.448Z,51.42
2023-02-23T00:14:38.103Z,51.49
2023-02-23T00:17:14.657Z,51.66
2023-02-23T00:19:46.066Z,51.57
2023-02-23T00:22:13.779Z,51.75
2023-02-23T00:24:47.288Z,51.69
2023-02-23T00:27:18.586Z,51.91
2023-02-23T00:29:49.693Z,51.84
2023-02-23T00:32:20.753Z,51.89
2023-02-23T00:34:52.129Z,51.69
2023-02-23T00:37:22.549Z,51.94
2023-02-23T00:39:51.759Z,51.88
2023-02-23T00:42:19.503Z,52.13
2023-02-23T00:44:48.914Z,52.18
2023-02-23T00:47:16.867Z,52.18
2023-02-23T00:49:45.113Z,52.30
2023-02-23T00:52:14.633Z,52.24
2023-02-23T00:54:43.572Z,52.39
2023-02-23T00:57:11.621Z,52.38
2023-02-23T00:59:39.410Z,52.56
2023-02-23T01:02:07.322Z,52.42
2023-02-23T01:04:35.057Z,52.75
2023-02-23T01:07:06.396Z,52.60
2023-02-23T01:09:34.155Z,52.74
2023-02-23T01:12:01.994Z,52.80
2023-02-23T01:14:31.166Z,52.79
2023-02-23T01:16:59.854Z,52.69
2023-02-23T01:19:28.564Z,52.87
2023-02-23T01:21:56.298Z,52.86
2023-02-23T01:24:24.357Z,52.80
2023-02-23T01:26:52.361Z,52.98
2023-02-23T01:29:21.276Z,53.01
2023-02-23T01:31:51.597Z,52.99
2023-02-23T01:34:23.911Z,53.04
2023-02-23T01:36:51.638Z,53.02
2023-02-23T01:39:20.922Z,53.00
2023-02-23T01:41:51.900Z,53.07
2023-02-23T01:44:19.599Z,53.13
2023-02-23T01:46:49.258Z,53.20
2023-02-23T01:49:25.632Z,53.14
2023-02-23T01:52:11.042Z,53.09
2023-02-23T01:54:51.015Z,53.04
2023-02-23T01:57:24.852Z,53.27
2023-02-23T01:59:53.749Z,53.38
2023-02-23T02:02:33.745Z,53.51
2023-02-23T02:05:08.080Z,53.53
2023-02-23T02:07:36.986Z,53.51
2023-02-23T02:10:11.862Z,53.61
2023-02-23T02:12:46.899Z,53.50
2023-02-23T02:15:18.067Z,53.65
2023-02-23T02:18:12.594Z,53.67
2023-02-23T02:20:55.356Z,53.73
2023-02-23T02:24:04.344Z,53.80
2023-02-23T02:27:01.152Z,53.78
2023-02-23T02:30:13.014Z,53.78
2023-02-23T02:33:19.185Z,53.75
2023-02-23T02:36:08.480Z,53.89
2023-02-23T02:38:58.777Z,53.90
2023-02-23T02:41:53.533Z,53.86
2023-02-23T02:44:36.181Z,53.97
2023-02-23T02:47:12.526Z,53.97
2023-02-23T02:49:51.338Z,54.03
2023-02-23T02:52:38.709Z,54.09
2023-02-23T02:55:18.547Z,53.94
2023-02-23T02:58:08.841Z,54.16
2023-02-23T03:01:23.733Z,54.17
2023-02-23T03:04:11.865Z,54.23
2023-02-23T03:07:23.212Z,54.15
2023-02-23T03:10:21.785Z,54.23
2023-02-23T03:13:38.534Z,54.31
2023-02-23T03:16:39.704Z,54.14
2023-02-23T03:19:46.115Z,54.30
2023-02-23T03:22:57.219Z,54.26
2023-02-23T03:26:01.685Z,54.40
2023-02-23T03:29:14.498Z,54.27
2023-02-23T03:32:29.150Z,54.20
2023-02-23T03:35:26.234Z,54.18
2023-02-23T03:38:28.640Z,54.28
2023-02-23T03:41:18.560Z,54.33
2023-02-23T03:44:13.346Z,54.26
2023-02-23T03:47:01.051Z,54.42
2023-02-23T03:49:52.564Z,54.31
2023-02-23T03:52:53.790Z,54.51
2023-02-23T03:55:47.390Z,54.25
2023-02-23T03:58:40.123Z,54.38
2023-02-23T04:01:30.261Z,54.48
2023-02-23T04:04:18.282Z,54.44
2023-02-23T04:07:07.019Z,54.43
2023-02-23T04:09:53.734Z,54.54
2023-02-23T04:13:06.437Z,54.37
2023-02-23T04:15:39.129Z,54.54
2023-02-23T04:18:12.296Z,54.70
2023-02-23T04:20:40.068Z,54.62
2023-02-23T04:23:07.917Z,54.62
2023-02-23T04:25:35.763Z,54.99
2023-02-23T04:28:03.691Z,54.77
2023-02-23T04:30:32.095Z,54.69
2023-02-23T04:33:00.559Z,54.86
2023-02-23T04:35:31.271Z,54.86
2023-02-23T04:37:59.822Z,54.90
2023-02-23T04:40:28.869Z,54.98
2023-02-23T04:42:56.988Z,54.93
2023-02-23T04:45:25.574Z,55.03
2023-02-23T04:47:53.436Z,54.98
2023-02-23T04:50:21.478Z,54.88
2023-02-23T04:52:49.599Z,54.81
2023-02-23T04:55:21.690Z,55.13
2023-02-23T04:57:50.237Z,54.94
2023-02-23T05:00:19.360Z,55.14
2023-02-23T05:02:48.988Z,55.06
2023-02-23T05:05:17.601Z,55.24
2023-02-23T05:07:45.366Z,55.29
2023-02-23T05:10:13.719Z,55.30
2023-02-23T05:12:41.667Z,55.10
2023-02-23T05:15:11.096Z,55.25
2023-02-23T05:17:42.079Z,55.25
2023-02-23T05:20:12.387Z,55.37
2023-02-23T05:22:40.690Z,55.22
2023-02-23T05:25:11.215Z,55.02
2023-02-23T05:27:40.327Z,54.92
2023-02-23T05:30:09.970Z,54.92
2023-02-23T05:32:37.770Z,55.03
2023-02-23T05:35:06.623Z,55.06
2023-02-23T05:37:34.719Z,55.10
2023-02-23T05:40:02.956Z,55.17
2023-02-23T05:42:31.098Z,55.05
2023-02-23T05:44:58.925Z,55.17
2023-02-23T05:47:26.840Z,55.33
2023-02-23T05:49:54.883Z,55.41
2023-02-23T05:52:23.023Z,55.45
2023-02-23T05:54:50.838Z,55.34
2023-02-23T05:57:18.648Z,55.24
2023-02-23T05:59:46.447Z,55.37
2023-02-23T06:02:14.281Z,55.28
2023-02-23T06:04:42.312Z,55.11
2023-02-23T06:07:10.057Z,55.45
2023-02-23T06:09:37.898Z,55.33
2023-02-23T06:12:13.291Z,55.38
2023-02-23T06:14:43.048Z,55.32
2023-02-23T06:17:10.878Z,55.25
2023-02-23T06:19:38.676Z,55.31
2023-02-23T06:22:06.465Z,55.27
2023-02-23T06:24:37.132Z,55.45
2023-02-23T06:27:05.294Z,55.35
2023-02-23T06:29:33.292Z,55.16
2023-02-23T06:32:01.649Z,55.12
2023-02-23T06:34:30.014Z,55.25
2023-02-23T06:37:00.110Z,55.45
2023-02-23T06:39:28.034Z,55.26
2023-02-23T06:41:55.931Z,55.27
2023-02-23T06:44:24.075Z,55.28
2023-02-23T06:46:52.145Z,55.45
2023-02-23T06:49:19.969Z,55.49
2023-02-23T06:51:47.657Z,55.39
2023-02-23T06:54:16.187Z,55.44
2023-02-23T06:56:44.006Z,55.55
2023-02-23T06:59:11.854Z,55.57
2023-02-23T07:01:39.720Z,55.57
2023-02-23T07:04:07.684Z,55.63
2023-02-23T07:06:35.387Z,55.65
2023-02-23T07:09:07.875Z,55.50
2023-02-23T07:11:35.719Z,55.55
2023-02-23T07:14:03.542Z,55.72
2023-02-23T07:16:31.737Z,55.74
2023-02-23T07:18:59.509Z,55.83
2023-02-23T07:21:28.741Z,55.78
2023-02-23T07:23:56.512Z,55.80
2023-02-23T07:26:24.931Z,55.89
2023-02-23T07:28:54.187Z,55.96
2023-02-23T07:31:22.456Z,55.90
2023-02-23T07:33:50.395Z,56.15
2023-02-23T07:36:18.183Z,56.02
2023-02-23T07:38:46.358Z,56.17
2023-02-23T07:41:16.746Z,56.29
2023-02-23T07:43:47.227Z,56.25
2023-02-23T07:46:17.464Z,56.31
2023-02-23T07:48:45.194Z,56.45
2023-02-23T07:51:15.819Z,56.26
2023-02-23T07:53:44.926Z,56.53
2023-02-23T07:56:15.141Z,56.64
2023-02-23T07:58:44.696Z,56.39
2023-02-23T08:01:14.383Z,56.53
2023-02-23T08:03:49.317Z,56.43
2023-02-23T08:06:19.024Z,56.71
2023-02-23T08:08:47.131Z,56.50
2023-02-23T08:11:15.814Z,56.33
2023-02-23T08:13:44.626Z,56.55
2023-02-23T08:16:16.819Z,56.62
2023-02-23T08:18:45.095Z,56.81
2023-02-23T08:21:15.110Z,56.80
2023-02-23T08:23:43.625Z,56.82
2023-02-23T08:26:11.665Z,56.93
2023-02-23T08:28:49.101Z,56.99
2023-02-23T08:31:22.264Z,57.22
2023-02-23T08:33:51.177Z,57.21
2023-02-23T08:36:20.754Z,57.18
2023-02-23T08:38:48.711Z,57.29
2023-02-23T08:41:17.774Z,57.44
2023-02-23T08:43:45.772Z,57.15
2023-02-23T08:46:14.385Z,57.29
2023-02-23T08:48:42.351Z,57.43
2023-02-23T08:51:10.137Z,57.55
2023-02-23T08:53:38.259Z,57.49
2023-02-23T08:56:09.279Z,57.45
2023-02-23T08:58:37.660Z,57.49
2023-02-23T09:01:05.956Z,57.25
2023-02-23T09:03:38.216Z,56.88
2023-02-23T09:06:12.440Z,56.56
2023-02-23T09:08:40.286Z,56.28
2023-02-23T09:11:09.353Z,56.25
2023-02-23T09:13:37.294Z,56.18
2023-02-23T09:16:07.672Z,56.26
2023-02-23T09:18:36.873Z,55.93
2023-02-23T09:21:08.568Z,55.78
2023-02-23T09:23:37.720Z,55.93
2023-02-23T09:26:07.821Z,55.66
2023-02-23T09:28:36.282Z,55.42
2023-02-23T09:31:13.389Z,55.18
2023-02-23T09:33:41.887Z,55.04
2023-02-23T09:36:23.348Z,55.02
2023-02-23T09:38:59.931Z,55.09
2023-02-23T09:41:47.943Z,54.91
2023-02-23T09:44:54.997Z,54.85
2023-02-23T09:47:51.067Z,54.87
2023-02-23T09:50:26.622Z,54.90
2023-02-23T09:53:10.585Z,54.75
2023-02-23T09:55:41.997Z,54.92
2023-02-23T09:58:19.794Z,55.27
2023-02-23T10:01:01.574Z,55.67
2023-02-23T10:03:35.083Z,55.40
2023-02-23T10:06:08.770Z,55.04
2023-02-23T10:08:51.312Z,54.93
2023-02-23T10:11:39.156Z,54.55
2023-02-23T10:14:27.546Z,54.37
2023-02-23T10:17:01.031Z,54.27
2023-02-23T10:20:05.188Z,54.14
2023-02-23T10:22:36.853Z,54.33
2023-02-23T10:25:28.662Z,53.95
2023-02-23T10:27:58.824Z,54.29
2023-02-23T10:30:32.350Z,54.14
2023-02-23T10:33:16.996Z,54.08
2023-02-23T10:35:47.021Z,54.07
2023-02-23T10:38:19.865Z,53.91
2023-02-23T10:40:54.648Z,54.08
2023-02-23T10:43:22.937Z,54.24
2023-02-23T10:45:52.952Z,53.87
2023-02-23T10:48:34.052Z,53.43
2023-02-23T10:51:04.423Z,53.68
2023-02-23T10:53:36.427Z,53.62
2023-02-23T10:56:13.785Z,53.28
2023-02-23T10:58:50.929Z,53.15
2023-02-23T11:02:00.362Z,53.06
2023-02-23T11:04:35.034Z,53.21
2023-02-23T11:07:21.197Z,53.13
2023-02-23T11:09:51.617Z,53.05
2023-02-23T11:12:42.462Z,52.67
2023-02-23T11:15:49.786Z,52.64
2023-02-23T11:18:27.583Z,52.66
2023-02-23T11:20:56.304Z,52.49
2023-02-23T11:23:36.065Z,52.14
2023-02-23T11:26:22.880Z,52.23
2023-02-23T11:28:59.458Z,52.19
2023-02-23T11:31:34.687Z,52.10
2023-02-23T11:34:07.308Z,52.07
2023-02-23T11:36:37.914Z,51.91
2023-02-23T11:39:20.587Z,51.77
2023-02-23T11:42:05.183Z,51.67
2023-02-23T11:44:35.892Z,51.81
2023-02-23T11:47:04.180Z,51.88
2023-02-23T11:49:36.666Z,51.70
2023-02-23T11:52:17.421Z,51.58
2023-02-23T11:55:02.858Z,51.75
2023-02-23T11:57:35.218Z,51.50
2023-02-23T12:00:27.750Z,51.36
2023-02-23T12:02:59.982Z,51.22
2023-02-23T12:05:32.821Z,51.04
2023-02-23T12:08:15.914Z,50.67
2023-02-23T12:11:06.727Z,50.49
2023-02-23T12:13:59.339Z,50.54
2023-02-23T12:16:38.812Z,50.49
2023-02-23T12:19:14.084Z,50.47
2023-02-23T12:22:12.190Z,49.89
2023-02-23T12:24:56.413Z,49.84
2023-02-23T12:27:51.436Z,49.60
2023-02-23T12:30:48.309Z,49.55
2023-02-23T12:33:47.846Z,49.20
2023-02-23T12:36:44.562Z,49.28
2023-02-23T12:39:24.536Z,49.15
2023-02-23T12:42:17.584Z,49.36
2023-02-23T12:44:55.521Z,49.68
2023-02-23T12:47:39.261Z,49.59
2023-02-23T12:50:41.012Z,49.56
2023-02-23T12:53:42.610Z,49.79
2023-02-23T12:56:35.510Z,49.77
2023-02-23T12:59:13.520Z,49.90
2023-02-23T13:02:01.310Z,49.31
2023-02-23T13:04:53.926Z,49.45
2023-02-23T13:08:39.692Z,49.62
2023-02-23T13:11:47.407Z,49.58
2023-02-23T13:14:40.304Z,49.37
2023-02-23T13:17:50.562Z,49.31
2023-02-23T13:20:37.774Z,49.41
2023-02-23T13:23:28.472Z,49.26
2023-02-23T13:26:13.758Z,49.54
2023-02-23T13:29:12.457Z,49.13
2023-02-23T13:31:43.411Z,49.39
2023-02-23T13:34:26.382Z,49.54
2023-02-23T13:36:56.306Z,49.56
2023-02-23T13:39:49.151Z,48.96
2023-02-23T13:42:26.512Z,48.88
2023-02-23T13:45:43.836Z,48.64
2023-02-23T13:48:31.253Z,48.65
2023-02-23T13:51:17.566Z,48.67
2023-02-23T13:54:06.519Z,48.51
2023-02-23T13:56:48.297Z,48.16
2023-02-23T13:59:25.953Z,47.95
2023-02-23T14:01:57.099Z,48.06
2023-02-23T14:04:35.396Z,47.85
2023-02-23T14:07:09.026Z,47.78
2023-02-23T14:10:06.990Z,47.56
2023-02-23T14:12:42.769Z,47.88
2023-02-23T14:15:25.636Z,48.33
2023-02-23T14:18:18.476Z,47.83
2023-02-23T14:21:07.594Z,47.67
2023-02-23T14:24:02.969Z,47.64
2023-02-23T14:26:31.026Z,47.70
2023-02-23T14:29:27.639Z,47.34
2023-02-23T14:32:24.682Z,47.51
2023-02-23T14:35:04.004Z,47.31
2023-02-23T14:37:40.791Z,46.97
2023-02-23T14:40:28.572Z,46.80
2023-02-23T14:43:02.050Z,46.96
2023-02-23T14:45:37.405Z,46.74
2023-02-23T14:48:13.403Z,46.13
2023-02-23T14:50:42.224Z,46.36
2023-02-23T14:53:22.425Z,45.76
2023-02-23T14:55:50.346Z,46.25
2023-02-23T14:58:37.985Z,46.00
2023-02-23T15:01:55.568Z,45.79
2023-02-23T15:04:29.967Z,45.98
2023-02-23T15:07:03.823Z,45.88
2023-02-23T15:09:55.440Z,45.80
2023-02-23T15:12:30.734Z,45.76
2023-02-23T15:15:04.604Z,46.06
2023-02-23T15:17:34.475Z,46.22
2023-02-23T15:20:16.648Z,45.87
2023-02-23T15:22:55.023Z,46.14
2023-02-23T15:25:33.719Z,46.32
2023-02-23T15:28:29.562Z,46.45
2023-02-23T15:31:02.435Z,46.29
2023-02-23T15:33:30.935Z,46.31
2023-02-23T15:36:15.880Z,46.12
2023-02-23T15:38:52.429Z,46.13
2023-02-23T15:41:32.453Z,46.41
2023-02-23T15:44:43.596Z,46.46
2023-02-23T15:47:28.517Z,46.46
2023-02-23T15:50:36.481Z,46.41
2023-02-23T15:53:24.707Z,46.73
2023-02-23T15:56:00.901Z,46.86
2023-02-23T15:58:44.543Z,46.97
2023-02-23T16:01:28.799Z,46.87
2023-02-23T16:04:13.174Z,46.90
2023-02-23T16:06:53.303Z,47.04
2023-02-23T16:09:21.683Z,47.18
2023-02-23T16:12:12.595Z,47.00
2023-02-23T16:15:00.869Z,47.16
2023-02-23T16:17:47.416Z,47.23
2023-02-23T16:20:23.754Z,47.34
2023-02-23T16:22:54.740Z,47.39
2023-02-23T16:25:27.052Z,47.35
2023-02-23T16:28:27.972Z,47.44
2023-02-23T16:31:00.097Z,47.70
2023-02-23T16:33:41.065Z,47.95
2023-02-23T16:36:23.607Z,47.81
2023-02-23T16:39:04.385Z,47.72
2023-02-23T16:41:34.630Z,47.96
2023-02-23T16:44:05.924Z,48.04
2023-02-23T16:47:01.479Z,48.01
2023-02-23T16:49:30.133Z,48.12
2023-02-23T16:52:00.069Z,48.25
2023-02-23T16:54:28.182Z,48.38
2023-02-23T16:56:56.636Z,48.46
2023-02-23T16:59:24.668Z,48.57
2023-02-23T17:01:52.379Z,48.55
2023-02-23T17:04:21.183Z,48.59
2023-02-23T17:06:57.668Z,48.66
2023-02-23T17:09:25.508Z,48.60
2023-02-23T17:11:56.310Z,48.52
2023-02-23T17:14:32.593Z,48.69
2023-02-23T17:17:00.558Z,48.62
2023-02-23T17:19:28.285Z,48.53
2023-02-23T17:21:56.087Z,48.55
2023-02-23T17:24:26.083Z,48.52
2023-02-23T17:26:55.334Z,48.56
2023-02-23T17:29:28.549Z,48.45
2023-02-23T17:31:59.902Z,48.50
2023-02-23T17:34:29.743Z,48.46
2023-02-23T17:36:57.813Z,48.62
2023-02-23T17:39:28.035Z,48.55
2023-02-23T17:41:56.176Z,48.73
2023-02-23T17:44:24.045Z,48.70
2023-02-23T17:46:51.864Z,48.82
2023-02-23T17:49:19.926Z,48.74
2023-02-23T17:51:47.798Z,48.76
2023-02-23T17:54:15.761Z,48.82
2023-02-23T17:56:43.806Z,48.88
2023-02-23T17:59:11.734Z,48.87
2023-02-23T18:01:41.467Z,49.02
2023-02-23T18:04:09.269Z,49.14
2023-02-23T18:06:36.991Z,49.17
2023-02-23T18:09:06.051Z,49.33
2023-02-23T18:11:35.054Z,49.38
2023-02-23T18:14:03.865Z,49.51
2023-02-23T18:16:33.352Z,49.59
2023-02-23T18:19:01.210Z,49.63
2023-02-23T18:21:29.782Z,49.63
2023-02-23T18:23:57.628Z,49.66
2023-02-23T18:26:27.001Z,49.74
2023-02-23T18:28:56.817Z,49.73
2023-02-23T18:31:30.616Z,49.73
2023-02-23T18:34:02.067Z,49.93
2023-02-23T18:36:38.193Z,50.03
2023-02-23T18:39:08.975Z,50.07
2023-02-23T18:41:37.764Z,50.16
2023-02-23T18:44:10.827Z,50.04
2023-02-23T18:46:39.515Z,50.02
2023-02-23T18:49:08.051Z,50.24
2023-02-23T18:51:38.348Z,50.20
2023-02-23T18:54:15.722Z,50.40
2023-02-23T18:56:55.622Z,50.47
2023-02-23T18:59:42.695Z,50.55
2023-02-23T19:02:11.186Z,50.63
2023-02-23T19:04:40.212Z,50.65
2023-02-23T19:07:08.615Z,50.74
2023-02-23T19:09:40.871Z,51.01
2023-02-23T19:12:13.442Z,50.99
2023-02-23T19:14:49.589Z,51.09
2023-02-23T19:17:19.370Z,51.10
2023-02-23T19:19:47.227Z,51.23
2023-02-23T19:22:16.105Z,51.12
2023-02-23T19:24:45.547Z,51.29
2023-02-23T19:27:16.515Z,51.33
2023-02-23T19:29:46.293Z,51.30
2023-02-23T19:32:19.058Z,51.31
2023-02-23T19:34:50.650Z,51.30
2023-02-23T19:37:19.079Z,51.44
2023-02-23T19:39:51.626Z,51.42
2023-02-23T19:42:22.333Z,51.51
2023-02-23T19:44:50.702Z,51.57
2023-02-23T19:47:19.163Z,51.51
2023-02-23T19:49:47.538Z,51.56
2023-02-23T19:52:16.869Z,51.79
2023-02-23T19:54:45.654Z,51.93
2023-02-23T19:57:15.780Z,51.75
2023-02-23T19:59:44.392Z,51.82
2023-02-23T20:02:13.586Z,51.87
2023-02-23T20:04:41.491Z,51.89
2023-02-23T20:07:12.127Z,51.79
2023-02-23T20:09:40.434Z,51.64
2023-02-23T20:12:08.777Z,51.71
2023-02-23T20:14:39.516Z,51.70
2023-02-23T20:17:09.436Z,51.69
2023-02-23T20:19:39.316Z,51.56
2023-02-23T20:22:09.059Z,51.60
2023-02-23T20:24:38.112Z,51.51
2023-02-23T20:27:08.119Z,51.41
2023-02-23T20:29:38.125Z,51.39
2023-02-23T20:32:07.087Z,51.39
2023-02-23T20:34:36.363Z,51.47
2023-02-23T20:37:04.982Z,51.47
2023-02-23T20:39:33.320Z,51.53
2023-02-23T20:42:02.649Z,51.53
2023-02-23T20:44:34.169Z,51.43
2023-02-23T20:47:02.944Z,51.48
2023-02-23T20:49:31.339Z,51.53
2023-02-23T20:52:04.164Z,51.53
2023-02-23T20:54:33.770Z,51.61
2023-02-23T20:57:21.875Z,51.66
2023-02-23T20:59:50.344Z,51.79
2023-02-23T21:02:18.931Z,51.77
2023-02-23T21:04:48.761Z,51.81
2023-02-23T21:07:17.664Z,51.97
2023-02-23T21:09:46.881Z,51.96
2023-02-23T21:12:15.430Z,51.93
2023-02-23T21:14:43.642Z,51.91
2023-02-23T21:17:11.911Z,52.13
2023-02-23T21:19:40.208Z,52.03
2023-02-23T21:22:16.443Z,52.01
2023-02-23T21:24:44.824Z,52.07
2023-02-23T21:27:13.726Z,51.80
2023-02-23T21:29:43.393Z,51.96
2023-02-23T21:32:14.779Z,51.84
2023-02-23T21:34:43.840Z,51.74
2023-02-23T21:37:13.902Z,51.75
2023-02-23T21:39:42.304Z,51.68
2023-02-23T21:42:10.513Z,51.64
2023-02-23T21:44:40.016Z,51.64
2023-02-23T21:47:08.960Z,51.54
2023-02-23T21:49:38.618Z,51.58
2023-02-23T21:52:07.153Z,51.42
2023-02-23T21:54:37.516Z,51.43
2023-02-23T21:57:06.863Z,51.49
2023-02-23T21:59:35.307Z,51.52
2023-02-23T22:02:03.458Z,51.41
2023-02-23T22:04:37.101Z,51.51
2023-02-23T22:07:08.243Z,51.24
2023-02-23T22:09:37.827Z,51.30
2023-02-23T22:12:08.145Z,51.37
2023-02-23T22:14:36.673Z,51.15
2023-02-23T22:17:09.729Z,51.49
2023-02-23T22:19:38.771Z,51.47
2023-02-23T22:22:07.321Z,51.34
2023-02-23T22:24:39.524Z,51.26
2023-02-23T22:27:10.824Z,51.34
2023-02-23T22:29:39.291Z,51.29
2023-02-23T22:32:07.707Z,51.33
2023-02-23T22:34:37.323Z,51.37
2023-02-23T22:37:06.089Z,51.31
2023-02-23T22:39:52.210Z,51.33
2023-02-23T22:42:21.533Z,51.43
2023-02-23T22:44:51.332Z,51.40
2023-02-23T22:47:23.369Z,51.44
2023-02-23T22:49:52.891Z,51.53
2023-02-23T22:52:21.028Z,51.38
2023-02-23T22:54:51.337Z,51.46
2023-02-23T22:57:20.357Z,51.30
2023-02-23T23:00:01.728Z,51.52
2023-02-23T23:02:32.471Z,51.59
2023-02-23T23:05:02.263Z,51.58
2023-02-23T23:07:33.636Z,51.33
2023-02-23T23:10:05.843Z,51.41
2023-02-23T23:12:37.013Z,51.53
2023-02-23T23:15:14.695Z,51.56
2023-02-23T23:17:48.729Z,51.43
2023-02-23T23:20:26.105Z,51.59
2023-02-23T23:22:57.352Z,51.53
2023-02-23T23:25:26.711Z,51.47
2023-02-23T23:27:56.299Z,51.80
2023-02-23T23:30:29.492Z,51.92
2023-02-23T23:33:00.453Z,52.23
2023-02-23T23:35:30.858Z,52.29
2023-02-23T23:38:01.719Z,52.48
2023-02-23T23:40:36.071Z,52.56
2023-02-23T23:43:07.626Z,52.66
2023-02-23T23:45:40.809Z,52.71
2023-02-23T23:48:10.042Z,52.66
2023-02-23T23:50:40.956Z,52.79
2023-02-23T23:53:10.802Z,53.24
2023-02-23T23:55:40.588Z,53.18
2023-02-23T23:58:08.952Z,53.07
